Swillington, United Kingdom
Current Conditions -  °F | °C
As of 9:50 AM on Monday 22 Dec 2014 (Local Time) from EGNM Reporting Station
Broken Clouds Broken Clouds  
Wind Chill: 11°   Ceiling: 1200
Heat Index: 11°   Visibility: 6mi
Dew Point:   Wind: 38mph
Humidity: 88%   Direction: 260°W
Pressure: 29.68"   Gusts: 55mph
Location:  53.77°N, 1.42°W
Report Text: EGNM 220950Z 26033G48KT 230V290 9999 BKN012 11/09 Q1005
Loading
Personal Weather Stations






























Interactive Weather Map New forecast layout! Learn more

10-Day Weather Forecast

Advertisements
Track Severe Weather on mobile